sensor_id;sensor_type;location;lat;lon;timestamp;temperature;humidity
20528;DHT22;23612;50.894;10.700;2022-11-12T00:00:14;5.00;99.90
20528;DHT22;23612;50.894;10.700;2022-11-12T00:02:40;4.90;99.90
20528;DHT22;23612;50.894;10.700;2022-11-12T00:05:06;4.80;99.90
20528;DHT22;23612;50.894;10.700;2022-11-12T00:07:31;4.70;99.90
20528;DHT22;23612;50.894;10.700;2022-11-12T00:09:57;4.70;99.90
20528;DHT22;23612;50.894;10.700;2022-11-12T00:12:22;4.70;99.90
20528;DHT22;23612;50.894;10.700;2022-11-12T00:14:48;4.80;99.90
20528;DHT22;23612;50.894;10.700;2022-11-12T00:17:13;4.80;99.90
20528;DHT22;23612;50.894;10.700;2022-11-12T00:19:39;4.80;99.90
20528;DHT22;23612;50.894;10.700;2022-11-12T00:22:04;4.80;99.90
20528;DHT22;23612;50.894;10.700;2022-11-12T00:24:30;4.80;99.90
20528;DHT22;23612;50.894;10.700;2022-11-12T00:26:55;4.90;99.90
20528;DHT22;23612;50.894;10.700;2022-11-12T00:29:21;4.80;99.90
20528;DHT22;23612;50.894;10.700;2022-11-12T00:31:46;4.70;99.90
20528;DHT22;23612;50.894;10.700;2022-11-12T00:34:12;4.70;99.90
20528;DHT22;23612;50.894;10.700;2022-11-12T00:36:37;4.60;99.90
20528;DHT22;23612;50.894;10.700;2022-11-12T00:39:03;4.60;99.90
20528;DHT22;23612;50.894;10.700;2022-11-12T00:41:29;4.40;99.90
20528;DHT22;23612;50.894;10.700;2022-11-12T00:43:54;4.40;99.90
20528;DHT22;23612;50.894;10.700;2022-11-12T00:46:20;4.30;99.90
20528;DHT22;23612;50.894;10.700;2022-11-12T00:48:45;4.20;99.90
20528;DHT22;23612;50.894;10.700;2022-11-12T00:51:11;4.20;99.90
20528;DHT22;23612;50.894;10.700;2022-11-12T00:53:36;4.20;99.90
20528;DHT22;23612;50.894;10.700;2022-11-12T00:56:04;4.20;99.90
20528;DHT22;23612;50.894;10.700;2022-11-12T00:58:32;4.20;99.90
20528;DHT22;23612;50.894;10.700;2022-11-12T01:01:04;4.20;99.90
20528;DHT22;23612;50.894;10.700;2022-11-12T01:03:30;4.20;99.90
20528;DHT22;23612;50.894;10.700;2022-11-12T01:06:04;4.20;99.90
20528;DHT22;23612;50.894;10.700;2022-11-12T01:08:30;4.20;99.90
20528;DHT22;23612;50.894;10.700;2022-11-12T01:10:56;4.20;99.90
20528;DHT22;23612;50.894;10.700;2022-11-12T01:13:21;4.30;99.90
20528;DHT22;23612;50.894;10.700;2022-11-12T01:15:47;4.40;99.90
20528;DHT22;23612;50.894;10.700;2022-11-12T01:18:13;4.40;99.90
20528;DHT22;23612;50.894;10.700;2022-11-12T01:20:38;4.50;99.90
20528;DHT22;23612;50.894;10.700;2022-11-12T01:23:04;4.40;99.90
20528;DHT22;23612;50.894;10.700;2022-11-12T01:25:30;4.40;99.90
20528;DHT22;23612;50.894;10.700;2022-11-12T01:27:56;4.30;99.90
20528;DHT22;23612;50.894;10.700;2022-11-12T01:30:22;4.10;99.90
20528;DHT22;23612;50.894;10.700;2022-11-12T01:32:47;3.90;99.90
20528;DHT22;23612;50.894;10.700;2022-11-12T01:35:13;3.80;99.90
20528;DHT22;23612;50.894;10.700;2022-11-12T01:37:38;3.80;99.90
20528;DHT22;23612;50.894;10.700;2022-11-12T01:40:04;3.90;99.90
20528;DHT22;23612;50.894;10.700;2022-11-12T01:42:31;3.90;99.90
20528;DHT22;23612;50.894;10.700;2022-11-12T01:44:57;4.00;99.90
20528;DHT22;23612;50.894;10.700;2022-11-12T01:47:30;4.10;99.90
20528;DHT22;23612;50.894;10.700;2022-11-12T01:49:59;4.10;99.90
20528;DHT22;23612;50.894;10.700;2022-11-12T01:52:59;4.10;99.90
20528;DHT22;23612;50.894;10.700;2022-11-12T01:55:26;4.10;99.90
20528;DHT22;23612;50.894;10.700;2022-11-12T01:58:09;4.10;99.90
20528;DHT22;23612;50.894;10.700;2022-11-12T02:00:36;4.10;99.90
20528;DHT22;23612;50.894;10.700;2022-11-12T02:03:06;4.20;99.90
20528;DHT22;23612;50.894;10.700;2022-11-12T02:05:33;4.20;99.90
20528;DHT22;23612;50.894;10.700;2022-11-12T02:08:01;4.10;99.90
20528;DHT22;23612;50.894;10.700;2022-11-12T02:10:28;4.00;99.90
20528;DHT22;23612;50.894;10.700;2022-11-12T02:12:55;4.00;99.90
20528;DHT22;23612;50.894;10.700;2022-11-12T02:15:40;4.00;99.90
20528;DHT22;23612;50.894;10.700;2022-11-12T02:18:06;4.00;99.90
20528;DHT22;23612;50.894;10.700;2022-11-12T02:20:36;4.10;99.90
20528;DHT22;23612;50.894;10.700;2022-11-12T02:23:03;4.10;99.90
20528;DHT22;23612;50.894;10.700;2022-11-12T02:25:29;4.10;99.90
20528;DHT22;23612;50.894;10.700;2022-11-12T02:27:55;4.20;99.90
20528;DHT22;23612;50.894;10.700;2022-11-12T02:30:35;4.20;99.90
20528;DHT22;23612;50.894;10.700;2022-11-12T02:33:01;4.20;99.90
20528;DHT22;23612;50.894;10.700;2022-11-12T02:35:28;4.20;99.90
20528;DHT22;23612;50.894;10.700;2022-11-12T02:37:53;4.20;99.90
20528;DHT22;23612;50.894;10.700;2022-11-12T02:40:20;4.20;99.90
20528;DHT22;23612;50.894;10.700;2022-11-12T02:42:45;4.20;99.90
20528;DHT22;23612;50.894;10.700;2022-11-12T02:45:11;4.20;99.90
20528;DHT22;23612;50.894;10.700;2022-11-12T02:47:37;4.20;99.90
20528;DHT22;23612;50.894;10.700;2022-11-12T02:50:03;4.10;99.90
20528;DHT22;23612;50.894;10.700;2022-11-12T02:52:29;4.10;99.90
20528;DHT22;23612;50.894;10.700;2022-11-12T02:54:54;4.10;99.90
20528;DHT22;23612;50.894;10.700;2022-11-12T02:57:20;4.20;99.90
20528;DHT22;23612;50.894;10.700;2022-11-12T02:59:46;4.20;99.90
20528;DHT22;23612;50.894;10.700;2022-11-12T03:02:11;4.20;99.90
20528;DHT22;23612;50.894;10.700;2022-11-12T03:04:37;4.10;99.90
20528;DHT22;23612;50.894;10.700;2022-11-12T03:07:02;4.10;99.90
20528;DHT22;23612;50.894;10.700;2022-11-12T03:09:28;4.10;99.90
20528;DHT22;23612;50.894;10.700;2022-11-12T03:11:53;4.00;99.90
20528;DHT22;23612;50.894;10.700;2022-11-12T03:14:19;4.00;99.90
20528;DHT22;23612;50.894;10.700;2022-11-12T03:16:44;4.00;99.90
20528;DHT22;23612;50.894;10.700;2022-11-12T03:19:10;4.00;99.90
20528;DHT22;23612;50.894;10.700;2022-11-12T03:21:35;4.00;99.90
20528;DHT22;23612;50.894;10.700;2022-11-12T03:24:01;4.00;99.90
20528;DHT22;23612;50.894;10.700;2022-11-12T03:26:27;3.90;99.90
20528;DHT22;23612;50.894;10.700;2022-11-12T03:28:52;3.90;99.90
20528;DHT22;23612;50.894;10.700;2022-11-12T03:31:18;3.80;99.90
20528;DHT22;23612;50.894;10.700;2022-11-12T03:33:44;3.80;99.90
20528;DHT22;23612;50.894;10.700;2022-11-12T03:36:09;3.70;99.90
20528;DHT22;23612;50.894;10.700;2022-11-12T03:38:36;3.70;99.90
20528;DHT22;23612;50.894;10.700;2022-11-12T03:41:01;3.60;99.90
20528;DHT22;23612;50.894;10.700;2022-11-12T03:43:27;3.50;99.90
20528;DHT22;23612;50.894;10.700;2022-11-12T03:45:52;3.40;99.90
20528;DHT22;23612;50.894;10.700;2022-11-12T03:48:18;3.30;99.90
20528;DHT22;23612;50.894;10.700;2022-11-12T03:50:44;3.20;99.90
20528;DHT22;23612;50.894;10.700;2022-11-12T03:53:09;3.10;99.90
20528;DHT22;23612;50.894;10.700;2022-11-12T03:55:35;3.10;99.90
20528;DHT22;23612;50.894;10.700;2022-11-12T03:58:00;3.10;99.90
20528;DHT22;23612;50.894;10.700;2022-11-12T04:00:27;3.10;99.90
20528;DHT22;23612;50.894;10.700;2022-11-12T04:02:53;3.00;99.90
20528;DHT22;23612;50.894;10.700;2022-11-12T04:05:19;3.00;99.90
20528;DHT22;23612;50.894;10.700;2022-11-12T04:08:06;3.00;99.90
20528;DHT22;23612;50.894;10.700;2022-11-12T04:10:51;3.00;99.90
20528;DHT22;23612;50.894;10.700;2022-11-12T04:13:16;3.10;99.90
20528;DHT22;23612;50.894;10.700;2022-11-12T04:16:12;3.20;99.90
20528;DHT22;23612;50.894;10.700;2022-11-12T04:18:58;3.20;99.90
20528;DHT22;23612;50.894;10.700;2022-11-12T04:21:48;3.20;99.90
20528;DHT22;23612;50.894;10.700;2022-11-12T04:24:54;3.30;99.90
20528;DHT22;23612;50.894;10.700;2022-11-12T04:27:51;3.30;99.90
20528;DHT22;23612;50.894;10.700;2022-11-12T04:30:17;3.30;99.90
20528;DHT22;23612;50.894;10.700;2022-11-12T04:32:48;3.20;99.90
20528;DHT22;23612;50.894;10.700;2022-11-12T04:35:14;3.10;99.90
20528;DHT22;23612;50.894;10.700;2022-11-12T04:37:40;3.10;99.90
20528;DHT22;23612;50.894;10.700;2022-11-12T04:42:55;2.90;99.90
20528;DHT22;23612;50.894;10.700;2022-11-12T04:45:41;2.90;99.90
20528;DHT22;23612;50.894;10.700;2022-11-12T04:48:08;2.80;99.90
20528;DHT22;23612;50.894;10.700;2022-11-12T04:50:33;2.80;99.90
20528;DHT22;23612;50.894;10.700;2022-11-12T04:52:59;2.90;99.90
20528;DHT22;23612;50.894;10.700;2022-11-12T04:55:25;2.90;99.90
20528;DHT22;23612;50.894;10.700;2022-11-12T04:57:50;3.00;99.90
20528;DHT22;23612;50.894;10.700;2022-11-12T05:00:16;3.10;99.90
20528;DHT22;23612;50.894;10.700;2022-11-12T05:02:41;3.10;99.90
20528;DHT22;23612;50.894;10.700;2022-11-12T05:05:07;3.20;99.90
20528;DHT22;23612;50.894;10.700;2022-11-12T05:07:33;3.30;99.90
20528;DHT22;23612;50.894;10.700;2022-11-12T05:09:58;3.30;99.90
20528;DHT22;23612;50.894;10.700;2022-11-12T05:12:24;3.30;99.90
20528;DHT22;23612;50.894;10.700;2022-11-12T05:14:49;3.20;99.90
20528;DHT22;23612;50.894;10.700;2022-11-12T05:17:15;3.20;99.90
20528;DHT22;23612;50.894;10.700;2022-11-12T05:19:40;3.10;99.90
20528;DHT22;23612;50.894;10.700;2022-11-12T05:22:06;3.00;99.90
20528;DHT22;23612;50.894;10.700;2022-11-12T05:24:37;3.00;99.90
20528;DHT22;23612;50.894;10.700;2022-11-12T05:27:06;3.00;99.90
20528;DHT22;23612;50.894;10.700;2022-11-12T05:29:32;3.00;99.90
20528;DHT22;23612;50.894;10.700;2022-11-12T05:31:57;3.10;99.90
20528;DHT22;23612;50.894;10.700;2022-11-12T05:34:23;3.00;99.90
20528;DHT22;23612;50.894;10.700;2022-11-12T05:36:48;2.90;99.90
20528;DHT22;23612;50.894;10.700;2022-11-12T05:39:14;2.80;99.90
20528;DHT22;23612;50.894;10.700;2022-11-12T05:41:40;2.70;99.90
20528;DHT22;23612;50.894;10.700;2022-11-12T05:44:05;2.70;99.90
20528;DHT22;23612;50.894;10.700;2022-11-12T05:46:31;2.70;99.90
20528;DHT22;23612;50.894;10.700;2022-11-12T05:48:56;2.70;99.90
20528;DHT22;23612;50.894;10.700;2022-11-12T05:51:22;2.70;99.90
20528;DHT22;23612;50.894;10.700;2022-11-12T05:53:47;2.70;99.90
20528;DHT22;23612;50.894;10.700;2022-11-12T05:56:13;2.70;99.90
20528;DHT22;23612;50.894;10.700;2022-11-12T05:58:39;2.60;99.90
20528;DHT22;23612;50.894;10.700;2022-11-12T06:01:04;2.60;99.90
20528;DHT22;23612;50.894;10.700;2022-11-12T06:03:30;2.60;99.90
20528;DHT22;23612;50.894;10.700;2022-11-12T06:05:56;2.60;99.90
20528;DHT22;23612;50.894;10.700;2022-11-12T06:08:21;2.60;99.90
20528;DHT22;23612;50.894;10.700;2022-11-12T06:10:48;2.60;99.90
20528;DHT22;23612;50.894;10.700;2022-11-12T06:13:14;2.60;99.90
20528;DHT22;23612;50.894;10.700;2022-11-12T06:15:40;2.50;99.90
20528;DHT22;23612;50.894;10.700;2022-11-12T06:18:05;2.60;99.90
20528;DHT22;23612;50.894;10.700;2022-11-12T06:20:31;2.60;99.90
20528;DHT22;23612;50.894;10.700;2022-11-12T06:22:56;2.60;99.90
20528;DHT22;23612;50.894;10.700;2022-11-12T06:25:22;2.60;99.90
20528;DHT22;23612;50.894;10.700;2022-11-12T06:27:48;2.60;99.90
20528;DHT22;23612;50.894;10.700;2022-11-12T06:30:13;2.60;99.90
20528;DHT22;23612;50.894;10.700;2022-11-12T06:32:39;2.60;99.90
20528;DHT22;23612;50.894;10.700;2022-11-12T06:35:05;2.40;99.90
20528;DHT22;23612;50.894;10.700;2022-11-12T06:37:31;2.40;99.90
20528;DHT22;23612;50.894;10.700;2022-11-12T06:39:56;2.40;99.90
20528;DHT22;23612;50.894;10.700;2022-11-12T06:42:22;2.40;99.90
20528;DHT22;23612;50.894;10.700;2022-11-12T06:44:47;2.40;99.90
20528;DHT22;23612;50.894;10.700;2022-11-12T06:47:13;2.30;99.90
20528;DHT22;23612;50.894;10.700;2022-11-12T06:49:38;2.20;99.90
20528;DHT22;23612;50.894;10.700;2022-11-12T06:52:04;2.20;99.90
20528;DHT22;23612;50.894;10.700;2022-11-12T06:54:29;2.30;99.90
20528;DHT22;23612;50.894;10.700;2022-11-12T06:56:55;2.30;99.90
20528;DHT22;23612;50.894;10.700;2022-11-12T06:59:20;2.30;99.90
20528;DHT22;23612;50.894;10.700;2022-11-12T07:01:46;2.30;99.90
20528;DHT22;23612;50.894;10.700;2022-11-12T07:04:11;2.40;99.90
20528;DHT22;23612;50.894;10.700;2022-11-12T07:06:37;2.40;99.90
20528;DHT22;23612;50.894;10.700;2022-11-12T07:09:04;2.50;99.90
20528;DHT22;23612;50.894;10.700;2022-11-12T07:11:30;2.60;99.90
20528;DHT22;23612;50.894;10.700;2022-11-12T07:13:55;2.70;99.90
20528;DHT22;23612;50.894;10.700;2022-11-12T07:16:21;2.80;99.90
20528;DHT22;23612;50.894;10.700;2022-11-12T07:18:47;3.00;99.90
20528;DHT22;23612;50.894;10.700;2022-11-12T07:21:18;3.10;99.90
20528;DHT22;23612;50.894;10.700;2022-11-12T07:23:45;3.30;99.90
20528;DHT22;23612;50.894;10.700;2022-11-12T07:28:40;3.60;99.90
20528;DHT22;23612;50.894;10.700;2022-11-12T07:31:10;3.70;99.90
20528;DHT22;23612;50.894;10.700;2022-11-12T07:33:36;3.80;99.90
20528;DHT22;23612;50.894;10.700;2022-11-12T07:36:07;3.80;99.90
20528;DHT22;23612;50.894;10.700;2022-11-12T07:38:35;4.00;99.90
20528;DHT22;23612;50.894;10.700;2022-11-12T07:41:05;4.00;99.90
20528;DHT22;23612;50.894;10.700;2022-11-12T07:43:32;4.10;99.90
20528;DHT22;23612;50.894;10.700;2022-11-12T07:46:03;4.30;99.90
20528;DHT22;23612;50.894;10.700;2022-11-12T07:48:30;4.40;99.90
20528;DHT22;23612;50.894;10.700;2022-11-12T07:51:00;4.40;99.90
20528;DHT22;23612;50.894;10.700;2022-11-12T07:53:26;4.40;99.90
20528;DHT22;23612;50.894;10.700;2022-11-12T07:55:55;4.50;99.90
20528;DHT22;23612;50.894;10.700;2022-11-12T07:58:22;4.60;99.90
20528;DHT22;23612;50.894;10.700;2022-11-12T08:00:48;4.70;99.90
20528;DHT22;23612;50.894;10.700;2022-11-12T08:03:13;5.00;99.90
20528;DHT22;23612;50.894;10.700;2022-11-12T08:05:39;5.20;99.90
20528;DHT22;23612;50.894;10.700;2022-11-12T08:08:04;5.30;99.90
20528;DHT22;23612;50.894;10.700;2022-11-12T08:10:30;5.50;99.90
20528;DHT22;23612;50.894;10.700;2022-11-12T08:12:55;5.60;99.90
20528;DHT22;23612;50.894;10.700;2022-11-12T08:15:21;5.70;99.90
20528;DHT22;23612;50.894;10.700;2022-11-12T08:17:47;5.90;99.90
20528;DHT22;23612;50.894;10.700;2022-11-12T08:20:12;6.00;99.90
20528;DHT22;23612;50.894;10.700;2022-11-12T08:22:38;6.10;99.90
20528;DHT22;23612;50.894;10.700;2022-11-12T08:25:04;6.30;99.90
20528;DHT22;23612;50.894;10.700;2022-11-12T08:27:30;6.80;99.90
20528;DHT22;23612;50.894;10.700;2022-11-12T08:29:56;7.10;99.90
20528;DHT22;23612;50.894;10.700;2022-11-12T08:32:21;7.40;99.90
20528;DHT22;23612;50.894;10.700;2022-11-12T08:34:47;7.60;99.90
20528;DHT22;23612;50.894;10.700;2022-11-12T08:37:12;7.80;99.90
20528;DHT22;23612;50.894;10.700;2022-11-12T08:39:38;7.80;99.90
20528;DHT22;23612;50.894;10.700;2022-11-12T08:42:03;8.00;99.90
20528;DHT22;23612;50.894;10.700;2022-11-12T08:44:29;8.10;99.90
20528;DHT22;23612;50.894;10.700;2022-11-12T08:46:55;8.20;99.90
20528;DHT22;23612;50.894;10.700;2022-11-12T08:49:20;8.30;99.90
20528;DHT22;23612;50.894;10.700;2022-11-12T08:51:46;8.30;99.90
20528;DHT22;23612;50.894;10.700;2022-11-12T08:54:11;8.40;99.90
20528;DHT22;23612;50.894;10.700;2022-11-12T08:56:37;8.60;99.90
20528;DHT22;23612;50.894;10.700;2022-11-12T08:59:04;8.60;99.90
20528;DHT22;23612;50.894;10.700;2022-11-12T09:01:29;8.60;99.90
20528;DHT22;23612;50.894;10.700;2022-11-12T09:03:55;8.80;99.90
20528;DHT22;23612;50.894;10.700;2022-11-12T09:06:20;9.00;99.90
20528;DHT22;23612;50.894;10.700;2022-11-12T09:08:46;9.00;99.90
20528;DHT22;23612;50.894;10.700;2022-11-12T09:11:11;9.20;99.90
20528;DHT22;23612;50.894;10.700;2022-11-12T09:13:37;9.40;99.90
20528;DHT22;23612;50.894;10.700;2022-11-12T09:16:04;9.60;99.90
20528;DHT22;23612;50.894;10.700;2022-11-12T09:18:30;9.80;99.90
20528;DHT22;23612;50.894;10.700;2022-11-12T09:21:01;10.10;99.90
20528;DHT22;23612;50.894;10.700;2022-11-12T09:23:26;10.30;99.90
20528;DHT22;23612;50.894;10.700;2022-11-12T09:25:54;10.50;99.90
20528;DHT22;23612;50.894;10.700;2022-11-12T09:28:20;10.90;99.90
20528;DHT22;23612;50.894;10.700;2022-11-12T09:30:48;11.00;99.90
20528;DHT22;23612;50.894;10.700;2022-11-12T09:33:15;11.40;99.90
20528;DHT22;23612;50.894;10.700;2022-11-12T09:35:41;11.30;99.90
20528;DHT22;23612;50.894;10.700;2022-11-12T09:38:07;11.30;99.90
20528;DHT22;23612;50.894;10.700;2022-11-12T09:43:32;12.30;99.90
20528;DHT22;23612;50.894;10.700;2022-11-12T09:46:01;12.90;99.90
20528;DHT22;23612;50.894;10.700;2022-11-12T09:48:39;14.00;99.90
20528;DHT22;23612;50.894;10.700;2022-11-12T09:51:15;14.50;99.90
20528;DHT22;23612;50.894;10.700;2022-11-12T09:53:46;14.40;99.90
20528;DHT22;23612;50.894;10.700;2022-11-12T09:56:18;14.30;99.90
20528;DHT22;23612;50.894;10.700;2022-11-12T09:58:46;14.20;99.90
20528;DHT22;23612;50.894;10.700;2022-11-12T10:01:13;14.10;99.90
20528;DHT22;23612;50.894;10.700;2022-11-12T10:03:48;13.90;99.90
20528;DHT22;23612;50.894;10.700;2022-11-12T10:06:21;14.10;99.90
20528;DHT22;23612;50.894;10.700;2022-11-12T10:09:10;13.90;99.90
20528;DHT22;23612;50.894;10.700;2022-11-12T10:17:36;12.80;99.90
20528;DHT22;23612;50.894;10.700;2022-11-12T10:20:19;12.70;99.90
20528;DHT22;23612;50.894;10.700;2022-11-12T10:25:31;12.10;99.90
20528;DHT22;23612;50.894;10.700;2022-11-12T10:27:58;11.90;99.90
20528;DHT22;23612;50.894;10.700;2022-11-12T10:30:25;11.90;99.90
20528;DHT22;23612;50.894;10.700;2022-11-12T10:32:51;12.00;99.90
20528;DHT22;23612;50.894;10.700;2022-11-12T10:35:19;12.20;99.90
20528;DHT22;23612;50.894;10.700;2022-11-12T10:40:27;12.40;99.90
20528;DHT22;23612;50.894;10.700;2022-11-12T10:43:02;12.40;99.90
20528;DHT22;23612;50.894;10.700;2022-11-12T10:45:28;12.30;99.90
20528;DHT22;23612;50.894;10.700;2022-11-12T10:47:53;12.50;99.90
20528;DHT22;23612;50.894;10.700;2022-11-12T10:53:04;12.30;99.90
20528;DHT22;23612;50.894;10.700;2022-11-12T10:55:35;12.30;99.90
20528;DHT22;23612;50.894;10.700;2022-11-12T11:00:58;12.80;99.90
20528;DHT22;23612;50.894;10.700;2022-11-12T11:03:33;13.00;99.90
20528;DHT22;23612;50.894;10.700;2022-11-12T11:06:03;13.00;99.90
20528;DHT22;23612;50.894;10.700;2022-11-12T11:11:29;13.00;99.90
20528;DHT22;23612;50.894;10.700;2022-11-12T11:13:57;13.10;99.90
20528;DHT22;23612;50.894;10.700;2022-11-12T11:16:54;13.20;99.90
20528;DHT22;23612;50.894;10.700;2022-11-12T11:19:20;13.10;99.90
20528;DHT22;23612;50.894;10.700;2022-11-12T11:24:43;13.10;99.90
20528;DHT22;23612;50.894;10.700;2022-11-12T11:38:34;13.00;99.90
20528;DHT22;23612;50.894;10.700;2022-11-12T11:44:16;12.90;99.90
20528;DHT22;23612;50.894;10.700;2022-11-12T11:49:53;13.20;99.90
20528;DHT22;23612;50.894;10.700;2022-11-12T12:01:19;13.50;99.90
20528;DHT22;23612;50.894;10.700;2022-11-12T12:06:27;14.20;99.90
20528;DHT22;23612;50.894;10.700;2022-11-12T12:10:17;14.90;99.90
20528;DHT22;23612;50.894;10.700;2022-11-12T12:20:34;17.20;99.90
20528;DHT22;23612;50.894;10.700;2022-11-12T12:23:07;17.30;99.90
20528;DHT22;23612;50.894;10.700;2022-11-12T12:25:40;17.40;99.90
20528;DHT22;23612;50.894;10.700;2022-11-12T12:28:39;17.40;99.90
20528;DHT22;23612;50.894;10.700;2022-11-12T12:31:19;17.10;99.90
20528;DHT22;23612;50.894;10.700;2022-11-12T12:34:01;17.00;99.90
20528;DHT22;23612;50.894;10.700;2022-11-12T12:36:35;17.00;99.90
20528;DHT22;23612;50.894;10.700;2022-11-12T12:39:14;17.00;99.90
20528;DHT22;23612;50.894;10.700;2022-11-12T12:42:19;16.60;99.90
20528;DHT22;23612;50.894;10.700;2022-11-12T12:44:59;16.20;99.90
20528;DHT22;23612;50.894;10.700;2022-11-12T12:47:29;16.30;99.90
20528;DHT22;23612;50.894;10.700;2022-11-12T12:49:56;16.10;99.90
20528;DHT22;23612;50.894;10.700;2022-11-12T12:52:22;16.20;99.90
20528;DHT22;23612;50.894;10.700;2022-11-12T12:57:36;16.10;99.90
20528;DHT22;23612;50.894;10.700;2022-11-12T13:00:35;16.00;99.90
20528;DHT22;23612;50.894;10.700;2022-11-12T13:03:01;15.90;99.90
20528;DHT22;23612;50.894;10.700;2022-11-12T13:05:32;15.70;99.90
20528;DHT22;23612;50.894;10.700;2022-11-12T13:08:04;15.70;99.90
20528;DHT22;23612;50.894;10.700;2022-11-12T13:13:22;15.50;99.90
20528;DHT22;23612;50.894;10.700;2022-11-12T13:15:50;15.40;99.90
20528;DHT22;23612;50.894;10.700;2022-11-12T13:21:19;15.30;99.90
20528;DHT22;23612;50.894;10.700;2022-11-12T13:24:01;15.30;99.90
20528;DHT22;23612;50.894;10.700;2022-11-12T13:29:20;15.10;99.90
20528;DHT22;23612;50.894;10.700;2022-11-12T13:31:46;15.00;99.90
20528;DHT22;23612;50.894;10.700;2022-11-12T13:34:21;14.90;99.90
20528;DHT22;23612;50.894;10.700;2022-11-12T13:36:58;14.90;99.90
20528;DHT22;23612;50.894;10.700;2022-11-12T13:39:25;14.70;99.90
20528;DHT22;23612;50.894;10.700;2022-11-12T13:41:58;14.60;99.90
20528;DHT22;23612;50.894;10.700;2022-11-12T13:44:43;14.50;99.90
20528;DHT22;23612;50.894;10.700;2022-11-12T13:47:17;13.90;99.90
20528;DHT22;23612;50.894;10.700;2022-11-12T13:49:46;13.80;99.90
20528;DHT22;23612;50.894;10.700;2022-11-12T13:52:13;13.70;99.90
20528;DHT22;23612;50.894;10.700;2022-11-12T13:54:40;13.50;99.90
20528;DHT22;23612;50.894;10.700;2022-11-12T13:57:25;13.40;99.90
20528;DHT22;23612;50.894;10.700;2022-11-12T14:00:20;13.30;99.90
20528;DHT22;23612;50.894;10.700;2022-11-12T14:02:56;13.20;99.90
20528;DHT22;23612;50.894;10.700;2022-11-12T14:05:25;13.20;99.90
20528;DHT22;23612;50.894;10.700;2022-11-12T14:10:43;12.90;99.90
20528;DHT22;23612;50.894;10.700;2022-11-12T14:19:16;12.70;99.90
20528;DHT22;23612;50.894;10.700;2022-11-12T14:22:00;12.60;99.90
20528;DHT22;23612;50.894;10.700;2022-11-12T14:24:26;12.50;99.90
20528;DHT22;23612;50.894;10.700;2022-11-12T14:26:52;12.40;99.90
20528;DHT22;23612;50.894;10.700;2022-11-12T14:29:18;12.40;99.90
20528;DHT22;23612;50.894;10.700;2022-11-12T14:31:44;12.30;99.90
20528;DHT22;23612;50.894;10.700;2022-11-12T14:36:51;12.10;99.90
20528;DHT22;23612;50.894;10.700;2022-11-12T14:39:21;12.10;99.90
20528;DHT22;23612;50.894;10.700;2022-11-12T14:41:47;12.00;99.90
20528;DHT22;23612;50.894;10.700;2022-11-12T14:44:25;11.90;99.90
20528;DHT22;23612;50.894;10.700;2022-11-12T14:46:54;11.80;99.90
20528;DHT22;23612;50.894;10.700;2022-11-12T14:52:11;11.60;99.90
20528;DHT22;23612;50.894;10.700;2022-11-12T14:54:50;11.50;99.90
20528;DHT22;23612;50.894;10.700;2022-11-12T14:57:27;11.40;99.90
20528;DHT22;23612;50.894;10.700;2022-11-12T14:59:54;11.20;99.90
20528;DHT22;23612;50.894;10.700;2022-11-12T15:02:28;11.00;99.90
20528;DHT22;23612;50.894;10.700;2022-11-12T15:05:02;10.90;99.90
20528;DHT22;23612;50.894;10.700;2022-11-12T15:07:58;10.80;99.90
20528;DHT22;23612;50.894;10.700;2022-11-12T15:10:39;10.60;99.90
20528;DHT22;23612;50.894;10.700;2022-11-12T15:13:19;10.50;99.90
20528;DHT22;23612;50.894;10.700;2022-11-12T15:18:23;10.30;99.90
20528;DHT22;23612;50.894;10.700;2022-11-12T15:21:13;10.10;99.90
20528;DHT22;23612;50.894;10.700;2022-11-12T15:26:21;9.90;99.90
20528;DHT22;23612;50.894;10.700;2022-11-12T15:28:58;9.80;99.90
20528;DHT22;23612;50.894;10.700;2022-11-12T15:31:24;9.50;99.90
20528;DHT22;23612;50.894;10.700;2022-11-12T15:33:49;9.30;99.90
20528;DHT22;23612;50.894;10.700;2022-11-12T15:36:17;9.20;99.90
20528;DHT22;23612;50.894;10.700;2022-11-12T15:39:01;9.10;99.90
20528;DHT22;23612;50.894;10.700;2022-11-12T15:41:29;8.90;99.90
20528;DHT22;23612;50.894;10.700;2022-11-12T15:43:55;8.90;99.90
20528;DHT22;23612;50.894;10.700;2022-11-12T15:46:21;8.80;99.90
20528;DHT22;23612;50.894;10.700;2022-11-12T15:48:47;8.70;99.90
20528;DHT22;23612;50.894;10.700;2022-11-12T15:51:14;8.70;99.90
20528;DHT22;23612;50.894;10.700;2022-11-12T15:53:40;8.60;99.90
20528;DHT22;23612;50.894;10.700;2022-11-12T15:56:10;8.50;99.90
20528;DHT22;23612;50.894;10.700;2022-11-12T15:58:37;8.50;99.90
20528;DHT22;23612;50.894;10.700;2022-11-12T16:01:05;8.40;99.90
20528;DHT22;23612;50.894;10.700;2022-11-12T16:03:30;8.40;99.90
20528;DHT22;23612;50.894;10.700;2022-11-12T16:05:56;8.30;99.90
20528;DHT22;23612;50.894;10.700;2022-11-12T16:08:22;8.30;99.90
20528;DHT22;23612;50.894;10.700;2022-11-12T16:10:47;8.20;99.90
20528;DHT22;23612;50.894;10.700;2022-11-12T16:13:26;8.20;99.90
20528;DHT22;23612;50.894;10.700;2022-11-12T16:15:52;8.10;99.90
20528;DHT22;23612;50.894;10.700;2022-11-12T16:18:18;8.10;99.90
20528;DHT22;23612;50.894;10.700;2022-11-12T16:20:44;8.20;99.90
20528;DHT22;23612;50.894;10.700;2022-11-12T16:23:11;8.10;99.90
20528;DHT22;23612;50.894;10.700;2022-11-12T16:25:37;8.10;99.90
20528;DHT22;23612;50.894;10.700;2022-11-12T16:28:12;8.00;99.90
20528;DHT22;23612;50.894;10.700;2022-11-12T16:30:38;7.90;99.90
20528;DHT22;23612;50.894;10.700;2022-11-12T16:33:03;7.80;99.90
20528;DHT22;23612;50.894;10.700;2022-11-12T16:35:32;7.70;99.90
20528;DHT22;23612;50.894;10.700;2022-11-12T16:37:58;7.70;99.90
20528;DHT22;23612;50.894;10.700;2022-11-12T16:40:27;7.50;99.90
20528;DHT22;23612;50.894;10.700;2022-11-12T16:42:53;7.40;99.90
20528;DHT22;23612;50.894;10.700;2022-11-12T16:45:21;7.30;99.90
20528;DHT22;23612;50.894;10.700;2022-11-12T16:47:48;7.20;99.90
20528;DHT22;23612;50.894;10.700;2022-11-12T16:50:17;7.10;99.90
20528;DHT22;23612;50.894;10.700;2022-11-12T16:52:43;7.10;99.90
20528;DHT22;23612;50.894;10.700;2022-11-12T16:55:09;7.00;99.90
20528;DHT22;23612;50.894;10.700;2022-11-12T16:57:35;7.00;99.90
20528;DHT22;23612;50.894;10.700;2022-11-12T17:00:02;7.00;99.90
20528;DHT22;23612;50.894;10.700;2022-11-12T17:02:27;7.00;99.90
20528;DHT22;23612;50.894;10.700;2022-11-12T17:04:53;7.00;99.90
20528;DHT22;23612;50.894;10.700;2022-11-12T17:07:19;7.00;99.90
20528;DHT22;23612;50.894;10.700;2022-11-12T17:09:44;6.90;99.90
20528;DHT22;23612;50.894;10.700;2022-11-12T17:12:10;6.80;99.90
20528;DHT22;23612;50.894;10.700;2022-11-12T17:14:36;6.80;99.90
20528;DHT22;23612;50.894;10.700;2022-11-12T17:17:01;6.90;99.90